Terminal Aerodrome Forecast
Issued by NWS Nashville, TN

Home | Current Version | Previous Version | Text Only | Print | Product List | Glossary On
Versions: 1 2 3 4 5 6 7 8 9 10 11 12 13 14 15 16 17 18 19 20 21 22 23 24 25 26 27 28 29 30 31 32
642
FTUS44 KOHX 302329
TAFCSV
TAF
KCSV 302329Z 3100/3124 19007G15KT P6SM BKN060
     FM310100 19010G20KT P6SM BKN060 WS020/19040KT
     FM310300 20008KT 5SM -SHRA OVC050
      TEMPO 3103/3107 VRB15G35KT 2SM TSRA OVC015CB
     FM310900 25006KT P6SM OVC030
     FM311400 25009KT P6SM OVC018=

USA.gov is the U.S. government's official web portal to all federal, state and local government web resources and services.